Amherst, Nebraska
Current Conditions -  °F | °C
As of 4:35 AM on Thursday 29 Jan 2015 (Local Time) from KEAR Reporting Station
Overcast Overcast  
Wind Chill: -5°   Ceiling: 3000
Heat Index:   Visibility: 10mi
Dew Point: -4°   Wind: 24mph
Humidity: 65%   Direction: 330°NNW
Pressure: 30.28"   Gusts: 30mph
Location:  40.77°N, 99.27°W
Report Text: KEAR 291035Z 33021G26KT 10SM OVC030 02/M04 A3028 RMK AO1
Loading
Personal Weather Stations






























Interactive Weather Map New forecast layout! Learn more

10-Day Weather Forecast

Advertisements
Track Severe Weather on mobile